Time;durP1;ratioP1;P1;durP2;ratioP2;P2;SDS_P1;SDS_P2;PMS_P1;PMS_P2;Temp;Humidity;BMP_temperature;BMP_pressure;BME280_temperature;BME280_humidity;BME280_pressure;Samples;Min_cycle;Max_cycle;Signal;HPM_P1;HPM_P2
2023/06/19 00:00:30;;;;;;;32.78;30.33;;;21.50;99.90;;;;;;5073676;28;20055;-68
2023/06/19 00:02:58;;;;;;;32.63;30.17;;;21.50;99.90;;;;;;5067107;28;20040;-69
2023/06/19 00:05:25;;;;;;;32.63;30.02;;;21.40;99.90;;;;;;5067226;28;20130;-70
2023/06/19 00:07:52;;;;;;;33.22;30.65;;;21.40;99.90;;;;;;5074683;28;20042;-69
2023/06/19 00:10:19;;;;;;;32.88;30.30;;;21.50;99.90;;;;;;5087051;28;20581;-69
2023/06/19 00:12:46;;;;;;;32.70;30.02;;;21.50;99.90;;;;;;5085460;28;20056;-69
2023/06/19 00:15:12;;;;;;;33.08;30.50;;;21.40;99.90;;;;;;5086292;28;20823;-70
2023/06/19 00:17:39;;;;;;;32.20;29.70;;;21.40;99.90;;;;;;5085194;28;20063;-69
2023/06/19 00:20:07;;;;;;;32.63;30.20;;;21.30;99.90;;;;;;5082684;28;20102;-69
2023/06/19 00:22:33;;;;;;;32.97;30.48;;;21.20;99.90;;;;;;5087156;28;20474;-69
2023/06/19 00:25:00;;;;;;;32.90;30.40;;;21.20;99.90;;;;;;5079946;28;20089;-68
2023/06/19 00:27:27;;;;;;;32.53;30.02;;;21.20;99.90;;;;;;5087969;28;20069;-70
2023/06/19 00:29:54;;;;;;;33.28;30.77;;;21.20;99.90;;;;;;5067692;28;20048;-69
2023/06/19 00:32:20;;;;;;;33.55;31.02;;;21.20;99.90;;;;;;5059481;28;20047;-69
2023/06/19 00:34:48;;;;;;;32.15;29.80;;;21.20;99.90;;;;;;5087434;28;20075;-68
2023/06/19 00:37:14;;;;;;;32.75;30.42;;;21.10;99.90;;;;;;5084812;28;20108;-69
2023/06/19 00:39:41;;;;;;;33.72;31.10;;;21.10;99.90;;;;;;5073077;28;20063;-69
2023/06/19 00:42:10;;;;;;;33.80;31.30;;;21.10;99.90;;;;;;5086863;28;20040;-69
2023/06/19 00:44:37;;;;;;;34.15;31.65;;;21.20;99.90;;;;;;5072730;28;20725;-69
2023/06/19 00:47:04;;;;;;;33.95;31.45;;;21.20;99.90;;;;;;5094291;28;20044;-68
2023/06/19 00:49:31;;;;;;;34.10;31.38;;;21.30;99.90;;;;;;5088755;28;20040;-69
2023/06/19 00:51:58;;;;;;;33.53;31.10;;;21.30;99.90;;;;;;5073078;28;20071;-69
2023/06/19 00:54:25;;;;;;;35.75;33.13;;;21.30;99.90;;;;;;5077019;28;20054;-69
2023/06/19 00:56:53;;;;;;;34.63;32.03;;;21.30;99.90;;;;;;5091342;28;20043;-68
2023/06/19 00:59:20;;;;;;;34.30;31.40;;;21.30;99.90;;;;;;5086716;28;20043;-69
2023/06/19 01:01:47;;;;;;;34.65;31.92;;;21.40;99.90;;;;;;5070577;28;20074;-68
2023/06/19 01:04:14;;;;;;;34.78;32.08;;;21.50;99.90;;;;;;5072159;28;20052;-69
2023/06/19 01:06:49;;;;;;;33.35;30.85;;;21.50;99.90;;;;;;5073804;28;20042;-69
2023/06/19 01:09:18;;;;;;;33.65;31.13;;;21.50;99.90;;;;;;5066077;28;20039;-69
2023/06/19 01:11:50;;;;;;;34.10;31.50;;;21.50;99.90;;;;;;5084807;28;20044;-69
2023/06/19 01:14:30;;;;;;;33.90;31.30;;;21.50;99.90;;;;;;5082714;28;20105;-69
2023/06/19 01:16:57;;;;;;;34.45;31.75;;;21.40;99.90;;;;;;5085728;28;20073;-69
2023/06/19 01:19:25;;;;;;;34.38;31.67;;;21.40;99.90;;;;;;5084527;28;20055;-69
2023/06/19 01:21:52;;;;;;;34.70;31.75;;;21.40;99.90;;;;;;5071929;28;20036;-69
2023/06/19 01:24:19;;;;;;;35.65;32.85;;;21.10;99.90;;;;;;5071070;28;20043;-70
2023/06/19 01:26:46;;;;;;;34.80;32.00;;;21.20;99.90;;;;;;5065634;28;20301;-68
2023/06/19 01:29:18;;;;;;;34.72;31.40;;;21.10;99.90;;;;;;5090159;28;20040;-68
2023/06/19 01:31:49;;;;;;;34.03;31.10;;;21.10;99.90;;;;;;5071600;28;20056;-71
2023/06/19 01:34:19;;;;;;;34.88;32.03;;;21.20;99.90;;;;;;5085225;28;20071;-70
2023/06/19 01:36:49;;;;;;;34.17;31.45;;;21.10;99.90;;;;;;5084854;28;20044;-70
2023/06/19 01:39:18;;;;;;;34.88;31.67;;;21.00;99.90;;;;;;5065522;28;20089;-69
2023/06/19 01:41:46;;;;;;;34.03;31.38;;;21.00;99.90;;;;;;5059872;28;20105;-71
2023/06/19 01:44:13;;;;;;;34.97;32.28;;;21.00;99.90;;;;;;5066536;28;20073;-68
2023/06/19 01:46:40;;;;;;;34.22;31.63;;;21.10;99.90;;;;;;5068708;28;20036;-68
2023/06/19 01:49:10;;;;;;;33.88;31.08;;;21.20;99.90;;;;;;5068766;28;20112;-69
2023/06/19 01:51:37;;;;;;;33.47;30.98;;;21.20;99.90;;;;;;5071580;28;20604;-69
2023/06/19 01:54:04;;;;;;;33.63;31.02;;;21.30;99.90;;;;;;5084749;28;20051;-70
2023/06/19 01:56:31;;;;;;;34.58;31.88;;;21.40;99.90;;;;;;5073360;28;20089;-68
2023/06/19 01:58:58;;;;;;;34.15;31.50;;;21.40;99.90;;;;;;5066916;28;20126;-67
2023/06/19 02:01:25;;;;;;;33.83;31.13;;;21.50;99.90;;;;;;5073791;28;20612;-69
2023/06/19 02:03:51;;;;;;;33.00;30.42;;;21.50;99.90;;;;;;5063645;28;20043;-68
2023/06/19 02:06:18;;;;;;;34.17;30.63;;;21.50;99.90;;;;;;5063972;28;21936;-68
2023/06/19 02:08:46;;;;;;;33.78;31.08;;;21.40;99.90;;;;;;5066661;28;20586;-68
2023/06/19 02:11:13;;;;;;;34.90;32.00;;;21.40;99.90;;;;;;5069313;28;20028;-69
2023/06/19 02:13:40;;;;;;;35.10;32.13;;;21.30;99.90;;;;;;5069677;28;20048;-70
2023/06/19 02:16:09;;;;;;;34.38;31.67;;;21.20;99.90;;;;;;5067358;28;20142;-71
2023/06/19 02:18:36;;;;;;;35.00;32.20;;;21.30;99.90;;;;;;5074950;28;20399;-70
2023/06/19 02:21:03;;;;;;;34.45;31.75;;;21.10;99.90;;;;;;5085745;28;20040;-70
2023/06/19 02:23:30;;;;;;;34.60;31.80;;;21.00;99.90;;;;;;5076323;28;20035;-70
2023/06/19 02:25:56;;;;;;;32.90;30.30;;;21.10;99.90;;;;;;5083571;28;20048;-70
2023/06/19 02:28:23;;;;;;;34.83;31.83;;;20.90;99.90;;;;;;5087264;28;20035;-71
2023/06/19 02:30:50;;;;;;;35.13;32.30;;;20.80;99.90;;;;;;5073739;28;20097;-69
2023/06/19 02:33:17;;;;;;;34.55;31.75;;;20.70;99.90;;;;;;5081112;28;20068;-70
2023/06/19 02:35:45;;;;;;;35.13;32.17;;;20.70;99.90;;;;;;5071757;28;20141;-70
2023/06/19 02:38:15;;;;;;;34.92;32.03;;;20.70;99.90;;;;;;5083108;28;20071;-71
2023/06/19 02:40:42;;;;;;;34.78;31.88;;;20.60;99.90;;;;;;5072782;28;20097;-70
2023/06/19 02:43:09;;;;;;;35.88;33.03;;;20.50;99.90;;;;;;5056204;28;20456;-70
2023/06/19 02:45:36;;;;;;;34.92;32.17;;;20.60;99.90;;;;;;5072795;28;20122;-70
2023/06/19 02:48:03;;;;;;;36.22;33.13;;;20.70;99.90;;;;;;5091288;28;20100;-69
2023/06/19 02:50:31;;;;;;;35.50;32.42;;;20.50;99.90;;;;;;5087571;28;20132;-71
2023/06/19 02:52:58;;;;;;;34.53;31.52;;;20.50;99.90;;;;;;5073675;28;20074;-71
2023/06/19 02:55:25;;;;;;;36.03;33.10;;;20.60;99.90;;;;;;5071941;28;20063;-70
2023/06/19 02:57:52;;;;;;;36.53;33.38;;;20.60;99.90;;;;;;5070656;28;20052;-70
2023/06/19 03:00:19;;;;;;;35.63;32.80;;;20.60;99.90;;;;;;5057476;28;20027;-69
2023/06/19 03:02:48;;;;;;;36.80;33.80;;;20.50;99.90;;;;;;5091061;28;20043;-70
2023/06/19 03:05:15;;;;;;;36.00;33.05;;;20.50;99.90;;;;;;5075328;28;20039;-69
2023/06/19 03:07:42;;;;;;;36.75;33.60;;;20.50;99.90;;;;;;5059013;28;20078;-70
2023/06/19 03:10:10;;;;;;;36.88;33.70;;;20.40;99.90;;;;;;5076827;28;20047;-69
2023/06/19 03:12:36;;;;;;;36.30;33.30;;;20.30;99.90;;;;;;5071070;28;20043;-70
2023/06/19 03:15:04;;;;;;;33.83;31.10;;;20.20;99.90;;;;;;5072105;28;20040;-71
2023/06/19 03:17:33;;;;;;;37.20;33.92;;;20.30;99.90;;;;;;5072995;28;20040;-70
2023/06/19 03:20:00;;;;;;;35.22;32.22;;;20.10;99.90;;;;;;5074316;28;20047;-70
2023/06/19 03:22:27;;;;;;;34.25;31.60;;;19.90;99.90;;;;;;5066371;28;20134;-69
2023/06/19 03:24:54;;;;;;;40.60;37.53;;;19.90;99.90;;;;;;5087267;28;20067;-71
2023/06/19 03:27:21;;;;;;;34.40;31.80;;;19.90;99.90;;;;;;5069551;28;20032;-70
2023/06/19 03:29:48;;;;;;;34.33;31.58;;;19.90;99.90;;;;;;5069053;28;20128;-70
2023/06/19 03:32:21;;;;;;;34.38;31.67;;;19.80;99.90;;;;;;5070566;28;20051;-70
2023/06/19 03:34:48;;;;;;;34.55;31.75;;;19.90;99.90;;;;;;5053688;28;20047;-68
2023/06/19 03:37:16;;;;;;;35.13;32.33;;;20.00;99.90;;;;;;5054800;28;20048;-67
2023/06/19 03:39:43;;;;;;;34.88;32.08;;;19.80;99.90;;;;;;5073660;28;20047;-69
2023/06/19 03:42:11;;;;;;;35.30;32.40;;;19.70;99.90;;;;;;5069920;28;20051;-70
2023/06/19 03:44:38;;;;;;;35.33;32.20;;;19.70;99.90;;;;;;5070380;28;20039;-70
2023/06/19 03:47:06;;;;;;;42.20;39.30;;;19.80;99.90;;;;;;5053219;28;20063;-70
2023/06/19 03:49:33;;;;;;;34.20;31.55;;;19.90;99.90;;;;;;5074427;28;20513;-70
2023/06/19 03:51:59;;;;;;;34.95;32.25;;;20.00;99.90;;;;;;5068954;28;20040;-70
2023/06/19 03:54:26;;;;;;;35.70;32.70;;;20.00;99.90;;;;;;5069784;28;20056;-69
2023/06/19 03:56:53;;;;;;;36.05;33.25;;;20.00;99.90;;;;;;5065251;28;20044;-70
2023/06/19 03:59:20;;;;;;;38.60;35.78;;;20.00;99.90;;;;;;5067356;28;20044;-69
2023/06/19 04:01:47;;;;;;;35.47;32.75;;;19.80;99.90;;;;;;5048873;28;20048;-69
2023/06/19 04:04:15;;;;;;;36.17;33.17;;;19.90;99.90;;;;;;5071613;28;20040;-69
2023/06/19 04:06:42;;;;;;;35.08;32.25;;;19.80;99.90;;;;;;5068476;28;20043;-70
2023/06/19 04:09:09;;;;;;;36.38;33.38;;;19.90;99.90;;;;;;5065542;28;20650;-68
2023/06/19 04:11:36;;;;;;;45.35;41.95;;;19.90;99.90;;;;;;5073815;28;20047;-69
2023/06/19 04:14:03;;;;;;;45.45;41.95;;;19.80;99.90;;;;;;5064991;28;20721;-69
2023/06/19 04:16:30;;;;;;;44.53;41.22;;;19.70;99.90;;;;;;5071094;28;20040;-69
2023/06/19 04:18:56;;;;;;;43.70;40.22;;;19.60;99.90;;;;;;5084504;28;20130;-69
2023/06/19 04:21:24;;;;;;;42.45;39.25;;;19.60;99.90;;;;;;5068636;28;20115;-70
2023/06/19 04:23:51;;;;;;;40.13;37.15;;;19.50;99.90;;;;;;5075988;28;20047;-70
2023/06/19 04:26:18;;;;;;;41.05;38.05;;;19.40;99.90;;;;;;5087243;28;20066;-71
2023/06/19 04:28:45;;;;;;;40.70;37.70;;;19.40;99.90;;;;;;5069347;28;20113;-69
2023/06/19 04:31:12;;;;;;;41.92;38.63;;;19.40;99.90;;;;;;5078952;28;20505;-71
2023/06/19 04:33:41;;;;;;;41.22;38.13;;;19.40;99.90;;;;;;5056084;28;20101;-71
2023/06/19 04:36:09;;;;;;;41.50;38.40;;;19.50;99.90;;;;;;5080246;28;20032;-69
2023/06/19 04:38:36;;;;;;;41.53;38.38;;;19.40;99.90;;;;;;5056826;28;20047;-69
2023/06/19 04:41:03;;;;;;;41.35;38.35;;;19.50;99.90;;;;;;5073832;28;20685;-70
2023/06/19 04:43:30;;;;;;;40.45;37.25;;;19.60;99.90;;;;;;5084643;28;20039;-70
2023/06/19 04:45:56;;;;;;;40.08;36.97;;;19.40;99.90;;;;;;5086424;28;20040;-71
2023/06/19 04:48:24;;;;;;;50.47;47.17;;;19.50;99.90;;;;;;5084467;28;20032;-71
2023/06/19 04:50:52;;;;;;;41.47;38.38;;;19.40;99.90;;;;;;5084497;28;20048;-70
2023/06/19 04:53:19;;;;;;;40.10;37.20;;;19.40;99.90;;;;;;5080435;28;20032;-68
2023/06/19 04:55:46;;;;;;;39.28;36.17;;;19.40;99.90;;;;;;5087286;28;20441;-68
2023/06/19 04:58:12;;;;;;;38.25;35.35;;;19.40;99.90;;;;;;5079605;28;20073;-68
2023/06/19 05:00:39;;;;;;;38.13;34.92;;;19.40;99.90;;;;;;5086130;28;20097;-70
2023/06/19 05:03:06;;;;;;;38.75;35.78;;;19.50;99.90;;;;;;5078858;28;20043;-70
2023/06/19 05:05:33;;;;;;;38.28;35.28;;;19.50;99.90;;;;;;5082240;28;20082;-70
2023/06/19 05:08:01;;;;;;;38.28;35.35;;;19.40;99.90;;;;;;5082051;28;20063;-71
2023/06/19 05:10:27;;;;;;;38.53;35.60;;;19.40;99.90;;;;;;5081709;28;20085;-70
2023/06/19 05:12:54;;;;;;;39.67;36.55;;;19.70;99.90;;;;;;5086566;28;20379;-69
2023/06/19 05:15:21;;;;;;;39.47;36.17;;;19.70;99.90;;;;;;5083828;28;20079;-67
2023/06/19 05:17:47;;;;;;;38.78;35.67;;;19.50;99.90;;;;;;5075242;28;20050;-69
2023/06/19 05:20:15;;;;;;;39.42;36.53;;;19.50;99.90;;;;;;5068101;28;20051;-69
2023/06/19 05:22:42;;;;;;;38.67;35.70;;;19.80;99.90;;;;;;5084873;28;20432;-69
2023/06/19 05:25:09;;;;;;;37.58;34.78;;;19.90;99.90;;;;;;5080786;28;20509;-67
2023/06/19 05:27:36;;;;;;;38.05;34.90;;;20.00;99.90;;;;;;5086125;28;20063;-68
2023/06/19 05:30:04;;;;;;;36.75;33.92;;;20.10;99.90;;;;;;5078881;28;20139;-68
2023/06/19 05:32:30;;;;;;;38.40;35.40;;;20.30;99.90;;;;;;5072269;28;20118;-69
2023/06/19 05:34:58;;;;;;;37.53;34.60;;;20.30;99.90;;;;;;5081345;28;20048;-69
2023/06/19 05:37:24;;;;;;;38.90;35.95;;;20.60;99.90;;;;;;5088030;28;20154;-69
2023/06/19 05:39:51;;;;;;;38.95;36.05;;;20.90;99.90;;;;;;5085098;28;20047;-68
2023/06/19 05:42:18;;;;;;;39.35;36.38;;;21.20;99.90;;;;;;5101316;28;20082;-68
2023/06/19 05:44:44;;;;;;;40.45;37.40;;;21.60;99.90;;;;;;5093489;28;20044;-68
2023/06/19 05:47:11;;;;;;;40.63;37.47;;;22.00;99.90;;;;;;5098802;28;20051;-67
2023/06/19 05:49:40;;;;;;;40.25;37.25;;;22.30;99.90;;;;;;5086318;28;20036;-71
2023/06/19 05:52:07;;;;;;;40.45;37.35;;;22.50;99.90;;;;;;5084465;28;20067;-69
2023/06/19 05:54:34;;;;;;;42.13;38.95;;;22.80;99.90;;;;;;5083381;28;20040;-68
2023/06/19 05:57:01;;;;;;;42.63;39.10;;;23.20;99.90;;;;;;5065717;28;20082;-69
2023/06/19 05:59:28;;;;;;;42.17;38.97;;;23.50;99.90;;;;;;5084701;28;20044;-68
2023/06/19 06:01:55;;;;;;;44.17;40.53;;;23.70;99.90;;;;;;5088078;28;20043;-68
2023/06/19 06:04:22;;;;;;;40.58;37.47;;;23.80;99.90;;;;;;5065405;28;20124;-68
2023/06/19 06:06:49;;;;;;;42.10;38.90;;;23.70;99.90;;;;;;5068745;28;20418;-69
2023/06/19 06:09:16;;;;;;;40.75;37.55;;;23.80;99.90;;;;;;5069172;28;20047;-69
2023/06/19 06:11:42;;;;;;;39.50;36.50;;;23.80;99.90;;;;;;5072530;28;20664;-68
2023/06/19 06:14:09;;;;;;;38.85;35.95;;;23.80;99.90;;;;;;5071810;28;20044;-70
2023/06/19 06:16:39;;;;;;;39.25;36.22;;;23.90;99.90;;;;;;5079023;28;20071;-70
2023/06/19 06:19:06;;;;;;;38.40;35.65;;;23.90;99.90;;;;;;5088744;28;20764;-69
2023/06/19 06:21:34;;;;;;;37.97;35.28;;;23.90;99.90;;;;;;5053532;28;20128;-71
2023/06/19 06:24:01;;;;;;;39.08;36.05;;;23.90;99.90;;;;;;5069847;28;20085;-70
2023/06/19 06:26:28;;;;;;;38.65;35.75;;;24.00;99.90;;;;;;5081942;28;20040;-70
2023/06/19 06:28:55;;;;;;;40.15;36.95;;;24.10;99.90;;;;;;5083476;28;20044;-69
2023/06/19 06:31:25;;;;;;;39.03;36.15;;;24.20;99.90;;;;;;5049079;28;20040;-71
2023/06/19 06:33:51;;;;;;;42.10;38.90;;;24.50;99.90;;;;;;5085464;28;20132;-70
2023/06/19 06:36:18;;;;;;;42.83;39.70;;;24.40;99.90;;;;;;5084821;28;20038;-70
2023/06/19 06:39:01;;;;;;;43.45;40.47;;;24.60;99.90;;;;;;5082211;28;20046;-69
2023/06/19 06:41:28;;;;;;;44.67;41.50;;;24.70;99.90;;;;;;5067415;28;20040;-69
2023/06/19 06:43:55;;;;;;;41.92;38.95;;;24.70;99.90;;;;;;5082934;28;20032;-68
2023/06/19 06:46:22;;;;;;;44.53;41.42;;;24.90;99.90;;;;;;5055295;28;20046;-70
2023/06/19 06:48:50;;;;;;;45.25;42.03;;;24.90;99.90;;;;;;5071555;28;20678;-70
2023/06/19 06:51:16;;;;;;;43.88;40.92;;;25.10;99.90;;;;;;5084499;28;20101;-69
2023/06/19 06:53:43;;;;;;;42.28;39.47;;;25.10;99.90;;;;;;5072399;28;20035;-70
2023/06/19 06:56:10;;;;;;;43.30;40.10;;;25.10;99.90;;;;;;5081665;28;20820;-70
2023/06/19 06:58:38;;;;;;;44.70;41.42;;;25.00;99.90;;;;;;5074021;28;20535;-70
2023/06/19 07:01:05;;;;;;;45.47;42.38;;;24.80;99.90;;;;;;5071498;28;20140;-70
2023/06/19 07:03:32;;;;;;;44.97;42.13;;;24.80;99.90;;;;;;5088439;28;20160;-70
2023/06/19 07:05:59;;;;;;;45.10;42.17;;;25.00;99.90;;;;;;5087582;28;20043;-70
2023/06/19 07:08:25;;;;;;;46.15;43.22;;;25.00;99.90;;;;;;5087636;28;20046;-70
2023/06/19 07:10:52;;;;;;;47.78;44.67;;;25.20;99.90;;;;;;5074425;28;20143;-69
2023/06/19 07:13:19;;;;;;;44.25;41.17;;;24.90;99.90;;;;;;5070790;28;20067;-70
2023/06/19 07:15:46;;;;;;;43.75;40.85;;;25.10;99.90;;;;;;5069631;28;20067;-70
2023/06/19 07:18:13;;;;;;;44.60;41.80;;;25.00;99.90;;;;;;5087216;28;20048;-70
2023/06/19 07:20:40;;;;;;;43.83;41.03;;;25.10;99.90;;;;;;5085159;28;20040;-69
2023/06/19 07:23:07;;;;;;;44.95;41.75;;;25.10;99.90;;;;;;5066715;28;20040;-69
2023/06/19 07:25:34;;;;;;;46.50;43.60;;;25.00;99.90;;;;;;5087319;28;20043;-70
2023/06/19 07:28:01;;;;;;;45.42;42.63;;;25.10;99.90;;;;;;5084633;28;20048;-70
2023/06/19 07:30:28;;;;;;;47.17;44.25;;;25.00;99.90;;;;;;5083293;28;20105;-70
2023/06/19 07:32:54;;;;;;;45.33;42.15;;;25.00;99.90;;;;;;5084885;28;20079;-72
2023/06/19 07:35:21;;;;;;;48.03;44.67;;;24.90;99.90;;;;;;5081964;28;20036;-73
2023/06/19 07:37:48;;;;;;;46.50;43.70;;;25.10;99.90;;;;;;5070740;28;20624;-72
2023/06/19 07:40:15;;;;;;;46.80;43.92;;;25.10;99.90;;;;;;5062986;28;20071;-73
2023/06/19 07:42:42;;;;;;;46.17;43.03;;;25.30;99.90;;;;;;5093395;27;20040;-72
2023/06/19 07:45:11;;;;;;;45.42;42.58;;;25.40;99.90;;;;;;5084391;28;20063;-73
2023/06/19 07:47:38;;;;;;;45.22;42.45;;;25.50;99.90;;;;;;5077128;28;20062;-73
2023/06/19 07:50:05;;;;;;;45.35;42.35;;;25.40;99.90;;;;;;5074766;28;20044;-72
2023/06/19 07:52:33;;;;;;;45.92;43.03;;;25.10;99.90;;;;;;5088463;28;20047;-73
2023/06/19 07:54:59;;;;;;;46.75;43.75;;;24.90;99.90;;;;;;5068171;28;20386;-72
2023/06/19 07:57:26;;;;;;;47.75;44.47;;;24.70;99.90;;;;;;5072347;28;20122;-71
2023/06/19 07:59:55;;;;;;;44.05;41.25;;;24.60;99.90;;;;;;5069876;28;20039;-73
2023/06/19 08:02:21;;;;;;;46.63;43.63;;;24.60;99.90;;;;;;5082463;28;20067;-73
2023/06/19 08:04:49;;;;;;;47.15;43.85;;;24.50;99.90;;;;;;5088482;27;20252;-71
2023/06/19 08:07:16;;;;;;;48.05;44.80;;;24.60;99.90;;;;;;5071074;28;20043;-71
2023/06/19 08:09:43;;;;;;;46.45;43.15;;;24.90;99.90;;;;;;5089298;28;20497;-71
2023/06/19 08:12:10;;;;;;;46.08;43.03;;;25.30;99.90;;;;;;5088862;28;20040;-71
2023/06/19 08:14:38;;;;;;;45.85;42.85;;;25.40;99.90;;;;;;5085079;28;20064;-71
2023/06/19 08:17:05;;;;;;;47.40;44.33;;;25.40;99.90;;;;;;5068291;28;20093;-71
2023/06/19 08:19:32;;;;;;;47.50;44.40;;;25.30;99.90;;;;;;5086786;28;20054;-73
2023/06/19 08:21:59;;;;;;;46.55;43.55;;;25.30;99.90;;;;;;5073939;28;20161;-71
2023/06/19 08:24:26;;;;;;;49.15;45.75;;;25.60;99.90;;;;;;5086115;28;20155;-71
2023/06/19 08:26:53;;;;;;;49.15;46.00;;;25.50;99.90;;;;;;5073931;28;20048;-71
2023/06/19 08:29:19;;;;;;;47.50;44.50;;;25.50;99.90;;;;;;5086267;28;20048;-71
2023/06/19 08:31:46;;;;;;;46.25;43.13;;;25.80;99.90;;;;;;5071694;28;20069;-71
2023/06/19 08:34:13;;;;;;;45.13;42.22;;;26.00;99.90;;;;;;5087247;28;20036;-71
2023/06/19 08:36:40;;;;;;;48.15;44.60;;;25.60;99.90;;;;;;5088510;28;20080;-71
2023/06/19 08:39:08;;;;;;;49.58;46.08;;;25.00;99.90;;;;;;5088406;28;20093;-71
2023/06/19 08:41:37;;;;;;;48.30;44.80;;;25.30;99.90;;;;;;5069151;28;20058;-70
2023/06/19 08:44:05;;;;;;;46.90;43.38;;;25.50;99.90;;;;;;5066724;28;20117;-71
2023/06/19 08:46:32;;;;;;;49.35;46.05;;;25.50;99.90;;;;;;5084976;28;20541;-71
2023/06/19 08:49:00;;;;;;;46.55;43.25;;;25.30;99.90;;;;;;5086190;28;20075;-73
2023/06/19 08:51:28;;;;;;;46.35;43.10;;;25.20;99.90;;;;;;5085166;28;20036;-72
2023/06/19 08:53:56;;;;;;;43.47;40.47;;;25.10;99.90;;;;;;5072365;28;20043;-73
2023/06/19 08:56:23;;;;;;;44.30;41.40;;;24.70;99.90;;;;;;5065804;28;20092;-73
2023/06/19 08:58:50;;;;;;;45.15;42.15;;;24.50;99.90;;;;;;5073524;28;20047;-71
2023/06/19 09:01:20;;;;;;;46.05;42.97;;;24.40;99.90;;;;;;5087249;28;20036;-71
2023/06/19 09:03:51;;;;;;;41.83;39.15;;;24.30;99.90;;;;;;5072793;28;20039;-71
2023/06/19 09:06:19;;;;;;;43.63;40.63;;;24.50;99.90;;;;;;5066956;28;20571;-71
2023/06/19 09:08:58;;;;;;;46.95;43.85;;;24.60;99.90;;;;;;5080395;28;20651;-71
2023/06/19 09:11:24;;;;;;;45.28;42.45;;;24.40;99.90;;;;;;5081766;28;20044;-70
2023/06/19 09:13:58;;;;;;;43.40;40.63;;;24.60;99.90;;;;;;5083450;28;20076;-72
2023/06/19 09:16:37;;;;;;;45.40;42.47;;;25.00;99.90;;;;;;5069478;28;20064;-71
2023/06/19 09:19:04;;;;;;;46.05;43.05;;;25.00;99.90;;;;;;5087785;28;20591;-70
2023/06/19 09:21:31;;;;;;;44.53;41.05;;;25.30;99.90;;;;;;5086794;28;20483;-71
2023/06/19 09:24:08;;;;;;;45.30;42.40;;;25.10;99.90;;;;;;5076481;28;20067;-69
2023/06/19 09:26:36;;;;;;;47.95;44.75;;;25.00;99.90;;;;;;5069501;28;20047;-69
2023/06/19 09:29:15;;;;;;;45.15;42.15;;;25.10;99.90;;;;;;5069043;28;20043;-68
2023/06/19 09:31:46;;;;;;;45.13;42.30;;;25.10;99.90;;;;;;5083461;28;20052;-69
2023/06/19 09:34:12;;;;;;;43.17;40.15;;;25.00;99.90;;;;;;5085045;28;20505;-71
2023/06/19 09:36:40;;;;;;;45.05;42.17;;;25.10;99.90;;;;;;5064415;28;20128;-69
2023/06/19 09:39:07;;;;;;;42.45;39.58;;;25.00;99.90;;;;;;5068230;28;20105;-69
2023/06/19 09:41:36;;;;;;;41.28;38.67;;;25.10;99.90;;;;;;5079429;28;20614;-70
2023/06/19 09:44:12;;;;;;;42.22;39.63;;;25.20;99.90;;;;;;5068484;28;20047;-70
2023/06/19 09:46:44;;;;;;;40.90;38.40;;;25.30;99.90;;;;;;5080829;28;20044;-70
2023/06/19 09:49:13;;;;;;;41.00;38.42;;;25.40;99.90;;;;;;5054039;28;20087;-69
2023/06/19 09:51:42;;;;;;;43.53;39.50;;;25.50;99.90;;;;;;5070727;28;20048;-70
2023/06/19 09:54:10;;;;;;;41.10;38.60;;;25.30;99.90;;;;;;5081688;28;20048;-69
2023/06/19 09:56:37;;;;;;;39.83;37.42;;;25.20;99.90;;;;;;5068569;28;20059;-69
2023/06/19 09:59:05;;;;;;;40.08;37.42;;;25.30;99.90;;;;;;5104712;28;20031;-69
2023/06/19 10:01:32;;;;;;;41.10;38.38;;;25.20;99.90;;;;;;5106087;28;20043;-68
2023/06/19 10:04:10;;;;;;;43.30;40.50;;;24.70;99.90;;;;;;5094846;28;20052;-69
2023/06/19 10:06:48;;;;;;;39.03;36.53;;;24.90;99.90;;;;;;5072981;28;20042;-70
2023/06/19 10:09:18;;;;;;;38.70;36.20;;;25.00;99.90;;;;;;5084972;28;20064;-70
2023/06/19 10:11:47;;;;;;;41.35;38.45;;;25.10;99.90;;;;;;5079919;28;20117;-69
2023/06/19 10:14:17;;;;;;;39.55;36.97;;;24.70;99.90;;;;;;5085410;28;20043;-69
2023/06/19 10:16:45;;;;;;;43.05;40.15;;;24.60;99.90;;;;;;5068559;28;20039;-68
2023/06/19 10:19:18;;;;;;;42.33;39.72;;;24.40;99.90;;;;;;5068030;28;20040;-69
2023/06/19 10:21:47;;;;;;;40.60;38.10;;;24.70;99.90;;;;;;5066184;28;20057;-69
2023/06/19 10:24:19;;;;;;;42.03;39.53;;;25.20;99.90;;;;;;5080939;28;20032;-69
2023/06/19 10:27:01;;;;;;;42.72;40.08;;;25.30;99.90;;;;;;5079295;28;20132;-68
2023/06/19 10:29:41;;;;;;;42.45;39.63;;;25.20;99.90;;;;;;5083395;28;20044;-69
2023/06/19 10:32:16;;;;;;;41.10;38.60;;;25.60;99.90;;;;;;5083387;28;20101;-69
2023/06/19 10:34:49;;;;;;;42.17;39.58;;;25.90;99.90;;;;;;5090777;28;20039;-69
2023/06/19 10:37:16;;;;;;;43.28;40.60;;;25.90;99.90;;;;;;5090831;28;20129;-69
2023/06/19 10:39:43;;;;;;;42.88;40.38;;;25.80;99.90;;;;;;5088220;28;20070;-69
2023/06/19 10:42:10;;;;;;;43.83;41.33;;;26.00;99.90;;;;;;5071299;28;20160;-68
2023/06/19 10:44:37;;;;;;;44.15;41.35;;;26.50;99.90;;;;;;5074867;28;20090;-69
2023/06/19 10:47:07;;;;;;;42.78;40.28;;;26.60;99.90;;;;;;5086736;28;20661;-70
2023/06/19 10:49:34;;;;;;;44.42;41.65;;;26.70;99.90;;;;;;5073229;28;20052;-69
2023/06/19 10:52:02;;;;;;;44.53;41.78;;;26.80;99.90;;;;;;5071118;28;20032;-69
2023/06/19 10:54:29;;;;;;;41.97;39.38;;;26.90;99.90;;;;;;5081843;28;20071;-69
2023/06/19 10:56:57;;;;;;;45.45;42.65;;;26.60;99.90;;;;;;5076549;28;20039;-69
2023/06/19 10:59:24;;;;;;;46.38;43.65;;;26.10;99.90;;;;;;5086947;28;20066;-69
2023/06/19 11:01:52;;;;;;;42.47;39.80;;;26.20;99.90;;;;;;5090975;28;20040;-71
2023/06/19 11:04:19;;;;;;;42.65;39.85;;;26.70;99.90;;;;;;5069922;28;20032;-70
2023/06/19 11:06:47;;;;;;;43.95;40.85;;;26.90;99.90;;;;;;5068903;28;20073;-68
2023/06/19 11:09:14;;;;;;;46.00;43.20;;;26.60;99.90;;;;;;5071177;28;20044;-68
2023/06/19 11:11:44;;;;;;;45.10;42.40;;;26.20;99.90;;;;;;5072727;28;20677;-69
2023/06/19 11:14:12;;;;;;;41.20;38.70;;;26.10;99.90;;;;;;5068378;28;20193;-67
2023/06/19 11:16:44;;;;;;;40.88;38.28;;;25.90;99.90;;;;;;5086732;28;20040;-68
2023/06/19 11:19:19;;;;;;;40.47;37.88;;;25.50;99.90;;;;;;5085639;28;20677;-68
2023/06/19 11:21:49;;;;;;;44.03;41.22;;;25.40;99.90;;;;;;5084171;28;20047;-69
2023/06/19 11:24:16;;;;;;;41.20;38.53;;;25.30;99.90;;;;;;5087660;28;20139;-68
2023/06/19 11:26:50;;;;;;;41.25;38.63;;;25.50;99.90;;;;;;5072727;28;20126;-68
2023/06/19 11:29:24;;;;;;;44.15;41.45;;;25.40;99.90;;;;;;5054942;28;20036;-69
2023/06/19 11:31:54;;;;;;;44.65;41.78;;;25.40;99.90;;;;;;5071213;28;20040;-69
2023/06/19 11:34:32;;;;;;;43.78;40.88;;;25.60;99.90;;;;;;5067694;28;20089;-69
2023/06/19 11:36:58;;;;;;;42.40;39.70;;;25.90;99.90;;;;;;5069253;28;20051;-69
2023/06/19 11:39:25;;;;;;;46.08;42.75;;;26.30;99.90;;;;;;5049632;28;20130;-69
2023/06/19 11:41:52;;;;;;;43.75;41.05;;;26.80;99.90;;;;;;5084619;28;20036;-68
2023/06/19 11:44:21;;;;;;;40.85;37.97;;;27.10;99.90;;;;;;5057686;28;20074;-70
2023/06/19 11:46:48;;;;;;;42.85;40.17;;;27.10;99.90;;;;;;5068532;28;20089;-69
2023/06/19 11:49:18;;;;;;;45.28;42.38;;;26.70;99.90;;;;;;5070291;28;20627;-67
2023/06/19 11:51:46;;;;;;;44.88;41.90;;;26.60;99.90;;;;;;5084671;28;20055;-70
2023/06/19 11:54:14;;;;;;;45.20;42.50;;;27.10;99.90;;;;;;5050974;28;20756;-69
2023/06/19 11:56:42;;;;;;;43.58;40.95;;;27.60;99.90;;;;;;5078709;28;20035;-69
2023/06/19 11:59:08;;;;;;;47.05;44.25;;;28.00;99.90;;;;;;5088018;28;20051;-68
2023/06/19 12:01:36;;;;;;;41.97;39.22;;;27.90;99.90;;;;;;5067139;28;20181;-69
2023/06/19 12:04:03;;;;;;;44.08;41.47;;;27.50;99.90;;;;;;5070781;28;20070;-67
2023/06/19 12:06:31;;;;;;;47.95;45.15;;;27.30;99.90;;;;;;5084232;28;20068;-69
2023/06/19 12:08:58;;;;;;;40.95;38.45;;;27.70;99.90;;;;;;5054375;28;20150;-74
2023/06/19 12:11:25;;;;;;;45.70;43.05;;;27.90;99.90;;;;;;5069087;28;20047;-72
2023/06/19 12:13:57;;;;;;;39.85;37.50;;;27.50;99.90;;;;;;5085605;28;21493;-71
2023/06/19 12:16:25;;;;;;;44.80;42.10;;;27.70;99.90;;;;;;5073081;28;20131;-72
2023/06/19 12:18:53;;;;;;;41.03;38.47;;;27.40;99.90;;;;;;5069307;28;20054;-72
2023/06/19 12:21:20;;;;;;;43.85;41.05;;;27.40;99.90;;;;;;5067571;28;20753;-72
2023/06/19 12:24:01;;;;;;;45.50;42.70;;;27.20;99.90;;;;;;5085723;28;20332;-72
2023/06/19 12:26:28;;;;;;;45.50;42.70;;;27.10;99.90;;;;;;5085791;28;20128;-72
2023/06/19 12:28:55;;;;;;;43.42;40.83;;;27.30;99.90;;;;;;5080313;28;20069;-72
2023/06/19 12:31:22;;;;;;;39.70;37.30;;;27.20;99.90;;;;;;5069048;28;20050;-72